sensor_id;sensor_type;location;lat;lon;timestamp;P1;durP1;ratioP1;P2;durP2;ratioP2
8183;SDS011;4133;48.752;9.088;2023-02-13T00:01:08;9.67;;;6.13;;
8183;SDS011;4133;48.752;9.088;2023-02-13T00:03:34;8.57;;;5.43;;
8183;SDS011;4133;48.752;9.088;2023-02-13T00:06:00;9.87;;;5.90;;
8183;SDS011;4133;48.752;9.088;2023-02-13T00:08:26;8.87;;;5.63;;
8183;SDS011;4133;48.752;9.088;2023-02-13T00:10:52;8.50;;;5.53;;
8183;SDS011;4133;48.752;9.088;2023-02-13T00:13:18;7.97;;;5.40;;
8183;SDS011;4133;48.752;9.088;2023-02-13T00:15:44;11.33;;;5.97;;
8183;SDS011;4133;48.752;9.088;2023-02-13T00:18:10;9.33;;;5.70;;
8183;SDS011;4133;48.752;9.088;2023-02-13T00:20:36;9.97;;;6.10;;
8183;SDS011;4133;48.752;9.088;2023-02-13T00:23:02;10.63;;;6.33;;
8183;SDS011;4133;48.752;9.088;2023-02-13T00:25:28;10.13;;;6.30;;
8183;SDS011;4133;48.752;9.088;2023-02-13T00:27:54;11.37;;;5.97;;
8183;SDS011;4133;48.752;9.088;2023-02-13T00:30:20;9.10;;;5.97;;
8183;SDS011;4133;48.752;9.088;2023-02-13T00:32:46;9.23;;;5.73;;
8183;SDS011;4133;48.752;9.088;2023-02-13T00:35:12;10.00;;;5.80;;
8183;SDS011;4133;48.752;9.088;2023-02-13T00:37:42;8.87;;;5.80;;
8183;SDS011;4133;48.752;9.088;2023-02-13T00:40:08;10.77;;;6.43;;
8183;SDS011;4133;48.752;9.088;2023-02-13T00:42:35;10.50;;;6.10;;
8183;SDS011;4133;48.752;9.088;2023-02-13T00:45:01;11.37;;;6.07;;
8183;SDS011;4133;48.752;9.088;2023-02-13T00:47:26;9.20;;;5.77;;
8183;SDS011;4133;48.752;9.088;2023-02-13T00:49:52;9.90;;;6.13;;
8183;SDS011;4133;48.752;9.088;2023-02-13T00:52:18;11.53;;;6.83;;
8183;SDS011;4133;48.752;9.088;2023-02-13T00:54:44;11.60;;;6.47;;
8183;SDS011;4133;48.752;9.088;2023-02-13T00:57:11;9.40;;;6.20;;
8183;SDS011;4133;48.752;9.088;2023-02-13T00:59:37;9.40;;;6.20;;
8183;SDS011;4133;48.752;9.088;2023-02-13T01:02:03;13.43;;;7.17;;
8183;SDS011;4133;48.752;9.088;2023-02-13T01:04:29;10.93;;;6.23;;
8183;SDS011;4133;48.752;9.088;2023-02-13T01:06:55;12.53;;;6.70;;
8183;SDS011;4133;48.752;9.088;2023-02-13T01:09:21;10.87;;;6.20;;
8183;SDS011;4133;48.752;9.088;2023-02-13T01:11:47;9.33;;;5.83;;
8183;SDS011;4133;48.752;9.088;2023-02-13T01:14:13;8.43;;;5.33;;
8183;SDS011;4133;48.752;9.088;2023-02-13T01:16:39;9.70;;;5.90;;
8183;SDS011;4133;48.752;9.088;2023-02-13T01:19:05;8.77;;;5.97;;
8183;SDS011;4133;48.752;9.088;2023-02-13T01:21:31;10.93;;;6.67;;
8183;SDS011;4133;48.752;9.088;2023-02-13T01:23:57;9.07;;;5.83;;
8183;SDS011;4133;48.752;9.088;2023-02-13T01:26:23;10.07;;;5.87;;
8183;SDS011;4133;48.752;9.088;2023-02-13T01:28:52;8.00;;;5.83;;
8183;SDS011;4133;48.752;9.088;2023-02-13T01:31:18;8.37;;;5.90;;
8183;SDS011;4133;48.752;9.088;2023-02-13T01:33:45;9.97;;;6.50;;
8183;SDS011;4133;48.752;9.088;2023-02-13T01:36:26;11.43;;;6.27;;
8183;SDS011;4133;48.752;9.088;2023-02-13T01:38:53;10.07;;;6.30;;
8183;SDS011;4133;48.752;9.088;2023-02-13T01:41:19;7.37;;;5.40;;
8183;SDS011;4133;48.752;9.088;2023-02-13T01:43:46;11.27;;;6.60;;
8183;SDS011;4133;48.752;9.088;2023-02-13T01:46:15;10.43;;;6.33;;
8183;SDS011;4133;48.752;9.088;2023-02-13T01:48:42;12.77;;;6.57;;
8183;SDS011;4133;48.752;9.088;2023-02-13T01:51:10;11.37;;;6.93;;
8183;SDS011;4133;48.752;9.088;2023-02-13T01:56:24;11.60;;;6.93;;
8183;SDS011;4133;48.752;9.088;2023-02-13T01:58:52;10.17;;;6.50;;
8183;SDS011;4133;48.752;9.088;2023-02-13T02:01:19;10.50;;;6.43;;
8183;SDS011;4133;48.752;9.088;2023-02-13T02:03:48;11.97;;;6.67;;
8183;SDS011;4133;48.752;9.088;2023-02-13T02:06:58;10.83;;;6.33;;
8183;SDS011;4133;48.752;9.088;2023-02-13T02:09:07;11.23;;;7.03;;
8183;SDS011;4133;48.752;9.088;2023-02-13T02:11:35;11.10;;;6.27;;
8183;SDS011;4133;48.752;9.088;2023-02-13T02:14:02;10.57;;;6.93;;
8183;SDS011;4133;48.752;9.088;2023-02-13T02:16:28;14.87;;;7.57;;
8183;SDS011;4133;48.752;9.088;2023-02-13T02:18:56;11.63;;;7.43;;
8183;SDS011;4133;48.752;9.088;2023-02-13T02:21:40;12.33;;;7.27;;
8183;SDS011;4133;48.752;9.088;2023-02-13T02:26:56;12.60;;;7.20;;
8183;SDS011;4133;48.752;9.088;2023-02-13T02:43:44;11.63;;;6.50;;
8183;SDS011;4133;48.752;9.088;2023-02-13T02:46:15;10.63;;;6.47;;
8183;SDS011;4133;48.752;9.088;2023-02-13T02:51:29;12.93;;;7.47;;
8183;SDS011;4133;48.752;9.088;2023-02-13T02:54:08;12.90;;;7.47;;
8183;SDS011;4133;48.752;9.088;2023-02-13T02:56:57;13.40;;;7.40;;
8183;SDS011;4133;48.752;9.088;2023-02-13T02:59:25;14.40;;;7.77;;
8183;SDS011;4133;48.752;9.088;2023-02-13T03:02:11;15.03;;;7.57;;
8183;SDS011;4133;48.752;9.088;2023-02-13T03:04:57;18.30;;;8.07;;
8183;SDS011;4133;48.752;9.088;2023-02-13T03:07:42;14.27;;;8.03;;
8183;SDS011;4133;48.752;9.088;2023-02-13T03:10:10;13.97;;;7.90;;
8183;SDS011;4133;48.752;9.088;2023-02-13T03:12:56;12.73;;;7.30;;
8183;SDS011;4133;48.752;9.088;2023-02-13T03:15:44;11.93;;;7.17;;
8183;SDS011;4133;48.752;9.088;2023-02-13T03:18:30;12.73;;;7.47;;
8183;SDS011;4133;48.752;9.088;2023-02-13T03:21:16;13.47;;;7.23;;
8183;SDS011;4133;48.752;9.088;2023-02-13T03:24:08;12.67;;;6.93;;
8183;SDS011;4133;48.752;9.088;2023-02-13T03:26:36;15.13;;;7.90;;
8183;SDS011;4133;48.752;9.088;2023-02-13T03:32:02;14.63;;;7.60;;
8183;SDS011;4133;48.752;9.088;2023-02-13T03:34:32;12.87;;;7.77;;
8183;SDS011;4133;48.752;9.088;2023-02-13T03:40:22;15.33;;;8.37;;
8183;SDS011;4133;48.752;9.088;2023-02-13T03:42:52;15.50;;;8.33;;
8183;SDS011;4133;48.752;9.088;2023-02-13T03:45:22;14.10;;;8.30;;
8183;SDS011;4133;48.752;9.088;2023-02-13T03:48:08;20.07;;;9.03;;
8183;SDS011;4133;48.752;9.088;2023-02-13T03:50:55;14.47;;;8.47;;
8183;SDS011;4133;48.752;9.088;2023-02-13T03:53:22;14.77;;;8.03;;
8183;SDS011;4133;48.752;9.088;2023-02-13T03:55:49;15.47;;;7.53;;
8183;SDS011;4133;48.752;9.088;2023-02-13T03:58:35;15.83;;;7.83;;
8183;SDS011;4133;48.752;9.088;2023-02-13T04:01:23;13.10;;;7.70;;
8183;SDS011;4133;48.752;9.088;2023-02-13T04:06:37;17.50;;;8.47;;
8183;SDS011;4133;48.752;9.088;2023-02-13T04:09:04;13.77;;;8.57;;
8183;SDS011;4133;48.752;9.088;2023-02-13T04:11:32;13.50;;;8.10;;
8183;SDS011;4133;48.752;9.088;2023-02-13T04:14:00;13.00;;;7.83;;
8183;SDS011;4133;48.752;9.088;2023-02-13T04:16:32;17.53;;;8.10;;
8183;SDS011;4133;48.752;9.088;2023-02-13T04:18:59;15.30;;;7.57;;
8183;SDS011;4133;48.752;9.088;2023-02-13T04:21:25;13.63;;;7.80;;
8183;SDS011;4133;48.752;9.088;2023-02-13T04:23:51;14.97;;;8.57;;
8183;SDS011;4133;48.752;9.088;2023-02-13T04:26:18;16.80;;;8.70;;
8183;SDS011;4133;48.752;9.088;2023-02-13T04:28:46;14.67;;;8.60;;
8183;SDS011;4133;48.752;9.088;2023-02-13T04:31:12;18.53;;;8.83;;
8183;SDS011;4133;48.752;9.088;2023-02-13T04:33:38;16.43;;;8.57;;
8183;SDS011;4133;48.752;9.088;2023-02-13T04:36:04;16.07;;;8.67;;
8183;SDS011;4133;48.752;9.088;2023-02-13T04:38:31;15.33;;;8.90;;
8183;SDS011;4133;48.752;9.088;2023-02-13T04:40:57;15.37;;;8.03;;
8183;SDS011;4133;48.752;9.088;2023-02-13T04:43:22;13.20;;;7.67;;
8183;SDS011;4133;48.752;9.088;2023-02-13T04:45:49;15.37;;;8.80;;
8183;SDS011;4133;48.752;9.088;2023-02-13T04:48:15;15.13;;;8.23;;
8183;SDS011;4133;48.752;9.088;2023-02-13T04:50:42;16.73;;;9.57;;
8183;SDS011;4133;48.752;9.088;2023-02-13T04:53:08;16.57;;;9.10;;
8183;SDS011;4133;48.752;9.088;2023-02-13T04:55:34;13.90;;;8.20;;
8183;SDS011;4133;48.752;9.088;2023-02-13T04:58:00;14.83;;;7.83;;
8183;SDS011;4133;48.752;9.088;2023-02-13T05:00:26;12.20;;;7.13;;
8183;SDS011;4133;48.752;9.088;2023-02-13T05:02:53;15.67;;;8.03;;
8183;SDS011;4133;48.752;9.088;2023-02-13T05:05:19;15.03;;;8.47;;
8183;SDS011;4133;48.752;9.088;2023-02-13T05:07:45;13.70;;;7.60;;
8183;SDS011;4133;48.752;9.088;2023-02-13T05:10:12;14.87;;;8.23;;
8183;SDS011;4133;48.752;9.088;2023-02-13T05:12:38;14.67;;;8.07;;
8183;SDS011;4133;48.752;9.088;2023-02-13T05:15:05;16.90;;;8.77;;
8183;SDS011;4133;48.752;9.088;2023-02-13T05:17:31;13.33;;;7.80;;
8183;SDS011;4133;48.752;9.088;2023-02-13T05:19:57;16.40;;;8.13;;
8183;SDS011;4133;48.752;9.088;2023-02-13T05:22:23;14.87;;;7.70;;
8183;SDS011;4133;48.752;9.088;2023-02-13T05:25:08;13.63;;;7.67;;
8183;SDS011;4133;48.752;9.088;2023-02-13T05:27:34;13.80;;;7.87;;
8183;SDS011;4133;48.752;9.088;2023-02-13T05:30:00;12.03;;;7.20;;
8183;SDS011;4133;48.752;9.088;2023-02-13T05:32:26;14.07;;;7.73;;
8183;SDS011;4133;48.752;9.088;2023-02-13T05:34:52;14.50;;;7.70;;
8183;SDS011;4133;48.752;9.088;2023-02-13T05:37:31;13.00;;;7.70;;
8183;SDS011;4133;48.752;9.088;2023-02-13T05:39:57;14.13;;;7.67;;
8183;SDS011;4133;48.752;9.088;2023-02-13T05:42:23;14.30;;;7.93;;
8183;SDS011;4133;48.752;9.088;2023-02-13T05:44:49;16.60;;;8.53;;
8183;SDS011;4133;48.752;9.088;2023-02-13T05:47:15;16.80;;;7.93;;
8183;SDS011;4133;48.752;9.088;2023-02-13T05:49:41;13.97;;;8.03;;
8183;SDS011;4133;48.752;9.088;2023-02-13T05:52:07;15.13;;;8.23;;
8183;SDS011;4133;48.752;9.088;2023-02-13T05:54:33;18.50;;;9.63;;
8183;SDS011;4133;48.752;9.088;2023-02-13T05:56:59;18.87;;;10.20;;
8183;SDS011;4133;48.752;9.088;2023-02-13T05:59:25;20.90;;;10.50;;
8183;SDS011;4133;48.752;9.088;2023-02-13T06:01:51;20.57;;;10.17;;
8183;SDS011;4133;48.752;9.088;2023-02-13T06:04:17;17.00;;;9.53;;
8183;SDS011;4133;48.752;9.088;2023-02-13T06:06:43;17.80;;;9.93;;
8183;SDS011;4133;48.752;9.088;2023-02-13T06:09:10;15.80;;;8.90;;
8183;SDS011;4133;48.752;9.088;2023-02-13T06:11:36;18.43;;;8.93;;
8183;SDS011;4133;48.752;9.088;2023-02-13T06:14:02;19.17;;;9.13;;
8183;SDS011;4133;48.752;9.088;2023-02-13T06:16:28;14.43;;;8.83;;
8183;SDS011;4133;48.752;9.088;2023-02-13T06:18:55;16.03;;;8.73;;
8183;SDS011;4133;48.752;9.088;2023-02-13T06:21:21;14.47;;;8.37;;
8183;SDS011;4133;48.752;9.088;2023-02-13T06:23:47;14.40;;;8.67;;
8183;SDS011;4133;48.752;9.088;2023-02-13T06:26:13;16.67;;;8.63;;
8183;SDS011;4133;48.752;9.088;2023-02-13T06:28:39;15.07;;;7.97;;
8183;SDS011;4133;48.752;9.088;2023-02-13T06:31:05;16.20;;;8.57;;
8183;SDS011;4133;48.752;9.088;2023-02-13T06:33:31;15.23;;;8.57;;
8183;SDS011;4133;48.752;9.088;2023-02-13T06:35:57;16.50;;;9.10;;
8183;SDS011;4133;48.752;9.088;2023-02-13T06:41:26;18.20;;;8.93;;
8183;SDS011;4133;48.752;9.088;2023-02-13T06:43:52;16.53;;;8.80;;
8183;SDS011;4133;48.752;9.088;2023-02-13T06:46:18;16.97;;;9.07;;
8183;SDS011;4133;48.752;9.088;2023-02-13T06:48:44;16.13;;;8.80;;
8183;SDS011;4133;48.752;9.088;2023-02-13T06:51:10;16.17;;;8.90;;
8183;SDS011;4133;48.752;9.088;2023-02-13T06:53:36;18.13;;;8.67;;
8183;SDS011;4133;48.752;9.088;2023-02-13T06:56:03;15.57;;;8.27;;
8183;SDS011;4133;48.752;9.088;2023-02-13T06:58:30;17.87;;;9.03;;
8183;SDS011;4133;48.752;9.088;2023-02-13T07:00:57;16.43;;;8.33;;
8183;SDS011;4133;48.752;9.088;2023-02-13T07:03:23;17.97;;;8.97;;
8183;SDS011;4133;48.752;9.088;2023-02-13T07:05:49;16.80;;;8.90;;
8183;SDS011;4133;48.752;9.088;2023-02-13T07:08:16;17.33;;;9.20;;
8183;SDS011;4133;48.752;9.088;2023-02-13T07:10:42;15.37;;;8.63;;
8183;SDS011;4133;48.752;9.088;2023-02-13T07:13:08;17.83;;;8.70;;
8183;SDS011;4133;48.752;9.088;2023-02-13T07:15:38;15.50;;;7.77;;
8183;SDS011;4133;48.752;9.088;2023-02-13T07:18:04;16.03;;;8.47;;
8183;SDS011;4133;48.752;9.088;2023-02-13T07:20:30;14.10;;;8.27;;
8183;SDS011;4133;48.752;9.088;2023-02-13T07:22:57;16.90;;;8.67;;
8183;SDS011;4133;48.752;9.088;2023-02-13T07:25:24;16.70;;;8.87;;
8183;SDS011;4133;48.752;9.088;2023-02-13T07:28:06;15.73;;;8.53;;
8183;SDS011;4133;48.752;9.088;2023-02-13T07:30:33;15.83;;;8.97;;
8183;SDS011;4133;48.752;9.088;2023-02-13T07:33:02;19.50;;;8.80;;
8183;SDS011;4133;48.752;9.088;2023-02-13T07:35:29;15.43;;;8.70;;
8183;SDS011;4133;48.752;9.088;2023-02-13T07:37:55;17.07;;;9.27;;
8183;SDS011;4133;48.752;9.088;2023-02-13T07:40:21;17.50;;;8.93;;
8183;SDS011;4133;48.752;9.088;2023-02-13T07:42:47;17.43;;;9.10;;
8183;SDS011;4133;48.752;9.088;2023-02-13T07:45:13;17.70;;;9.30;;
8183;SDS011;4133;48.752;9.088;2023-02-13T07:47:40;17.30;;;9.17;;
8183;SDS011;4133;48.752;9.088;2023-02-13T07:50:06;15.20;;;9.17;;
8183;SDS011;4133;48.752;9.088;2023-02-13T07:52:32;19.83;;;9.23;;
8183;SDS011;4133;48.752;9.088;2023-02-13T07:54:58;17.77;;;9.00;;
8183;SDS011;4133;48.752;9.088;2023-02-13T07:57:24;16.40;;;9.00;;
8183;SDS011;4133;48.752;9.088;2023-02-13T07:59:50;17.43;;;9.13;;
8183;SDS011;4133;48.752;9.088;2023-02-13T08:08:10;14.90;;;8.93;;
8183;SDS011;4133;48.752;9.088;2023-02-13T08:10:36;15.70;;;9.37;;
8183;SDS011;4133;48.752;9.088;2023-02-13T08:13:21;14.93;;;8.90;;
8183;SDS011;4133;48.752;9.088;2023-02-13T08:15:47;15.83;;;9.27;;
8183;SDS011;4133;48.752;9.088;2023-02-13T08:18:13;16.97;;;9.17;;
8183;SDS011;4133;48.752;9.088;2023-02-13T08:20:39;16.87;;;9.90;;
8183;SDS011;4133;48.752;9.088;2023-02-13T08:23:05;16.70;;;9.30;;
8183;SDS011;4133;48.752;9.088;2023-02-13T08:25:32;16.63;;;9.53;;
8183;SDS011;4133;48.752;9.088;2023-02-13T08:28:02;17.73;;;10.17;;
8183;SDS011;4133;48.752;9.088;2023-02-13T08:30:29;18.92;;;12.18;;
8183;SDS011;4133;48.752;9.088;2023-02-13T08:32:55;16.53;;;10.43;;
8183;SDS011;4133;48.752;9.088;2023-02-13T08:35:21;19.57;;;10.37;;
8183;SDS011;4133;48.752;9.088;2023-02-13T08:37:50;18.10;;;10.60;;
8183;SDS011;4133;48.752;9.088;2023-02-13T08:40:16;15.60;;;10.33;;
8183;SDS011;4133;48.752;9.088;2023-02-13T08:42:42;17.00;;;10.73;;
8183;SDS011;4133;48.752;9.088;2023-02-13T08:45:08;16.63;;;10.57;;
8183;SDS011;4133;48.752;9.088;2023-02-13T08:47:35;15.40;;;11.00;;
8183;SDS011;4133;48.752;9.088;2023-02-13T08:50:02;16.53;;;11.30;;
8183;SDS011;4133;48.752;9.088;2023-02-13T08:52:28;16.23;;;10.40;;
8183;SDS011;4133;48.752;9.088;2023-02-13T08:54:54;15.77;;;10.83;;
8183;SDS011;4133;48.752;9.088;2023-02-13T08:57:20;16.37;;;10.57;;
8183;SDS011;4133;48.752;9.088;2023-02-13T08:59:46;13.73;;;9.57;;
8183;SDS011;4133;48.752;9.088;2023-02-13T09:02:12;14.77;;;10.43;;
8183;SDS011;4133;48.752;9.088;2023-02-13T09:04:38;14.23;;;9.37;;
8183;SDS011;4133;48.752;9.088;2023-02-13T09:07:04;13.37;;;9.27;;
8183;SDS011;4133;48.752;9.088;2023-02-13T09:09:31;13.27;;;9.80;;
8183;SDS011;4133;48.752;9.088;2023-02-13T09:11:57;12.27;;;9.03;;
8183;SDS011;4133;48.752;9.088;2023-02-13T09:14:24;14.23;;;9.77;;
8183;SDS011;4133;48.752;9.088;2023-02-13T09:16:50;12.83;;;9.33;;
8183;SDS011;4133;48.752;9.088;2023-02-13T09:19:17;13.40;;;8.90;;
8183;SDS011;4133;48.752;9.088;2023-02-13T09:21:43;13.10;;;9.20;;
8183;SDS011;4133;48.752;9.088;2023-02-13T09:24:09;13.63;;;9.47;;
8183;SDS011;4133;48.752;9.088;2023-02-13T09:26:35;11.10;;;8.40;;
8183;SDS011;4133;48.752;9.088;2023-02-13T09:29:05;12.03;;;8.80;;
8183;SDS011;4133;48.752;9.088;2023-02-13T09:31:31;14.13;;;9.57;;
8183;SDS011;4133;48.752;9.088;2023-02-13T09:33:57;11.63;;;8.53;;
8183;SDS011;4133;48.752;9.088;2023-02-13T09:36:23;12.67;;;8.67;;
8183;SDS011;4133;48.752;9.088;2023-02-13T09:38:53;13.00;;;9.27;;
8183;SDS011;4133;48.752;9.088;2023-02-13T09:41:20;11.10;;;8.63;;
8183;SDS011;4133;48.752;9.088;2023-02-13T09:46:20;11.43;;;8.30;;
8183;SDS011;4133;48.752;9.088;2023-02-13T09:48:52;14.57;;;8.73;;
8183;SDS011;4133;48.752;9.088;2023-02-13T09:51:19;12.03;;;8.00;;
8183;SDS011;4133;48.752;9.088;2023-02-13T09:53:55;10.77;;;8.30;;
8183;SDS011;4133;48.752;9.088;2023-02-13T09:56:43;12.73;;;8.73;;
8183;SDS011;4133;48.752;9.088;2023-02-13T10:01:59;11.67;;;8.50;;
8183;SDS011;4133;48.752;9.088;2023-02-13T10:04:43;11.90;;;8.23;;
8183;SDS011;4133;48.752;9.088;2023-02-13T10:07:24;12.17;;;8.30;;
8183;SDS011;4133;48.752;9.088;2023-02-13T10:10:06;12.33;;;8.17;;
8183;SDS011;4133;48.752;9.088;2023-02-13T10:12:53;10.20;;;7.47;;
8183;SDS011;4133;48.752;9.088;2023-02-13T10:15:26;11.20;;;8.03;;
8183;SDS011;4133;48.752;9.088;2023-02-13T10:17:57;14.10;;;7.97;;
8183;SDS011;4133;48.752;9.088;2023-02-13T10:21:06;9.17;;;7.23;;
8183;SDS011;4133;48.752;9.088;2023-02-13T10:25:52;11.40;;;8.17;;
8183;SDS011;4133;48.752;9.088;2023-02-13T10:30:57;10.27;;;7.47;;
8183;SDS011;4133;48.752;9.088;2023-02-13T10:33:27;9.87;;;7.20;;
8183;SDS011;4133;48.752;9.088;2023-02-13T10:38:22;8.43;;;7.33;;
8183;SDS011;4133;48.752;9.088;2023-02-13T10:44:16;8.43;;;6.83;;
8183;SDS011;4133;48.752;9.088;2023-02-13T10:46:29;10.50;;;7.50;;
8183;SDS011;4133;48.752;9.088;2023-02-13T10:49:02;9.77;;;6.60;;
8183;SDS011;4133;48.752;9.088;2023-02-13T10:52:14;8.43;;;6.97;;
8183;SDS011;4133;48.752;9.088;2023-02-13T11:02:12;11.07;;;7.30;;
8183;SDS011;4133;48.752;9.088;2023-02-13T11:04:42;10.10;;;7.73;;
8183;SDS011;4133;48.752;9.088;2023-02-13T11:07:12;9.70;;;6.77;;
8183;SDS011;4133;48.752;9.088;2023-02-13T11:09:40;6.87;;;5.80;;
8183;SDS011;4133;48.752;9.088;2023-02-13T11:14:52;8.33;;;6.43;;
8183;SDS011;4133;48.752;9.088;2023-02-13T11:17:19;7.60;;;6.00;;
8183;SDS011;4133;48.752;9.088;2023-02-13T11:19:46;7.87;;;6.13;;
8183;SDS011;4133;48.752;9.088;2023-02-13T11:24:55;8.00;;;5.70;;
8183;SDS011;4133;48.752;9.088;2023-02-13T11:27:26;7.67;;;5.80;;
8183;SDS011;4133;48.752;9.088;2023-02-13T11:29:54;7.67;;;5.93;;
8183;SDS011;4133;48.752;9.088;2023-02-13T11:32:28;7.20;;;5.60;;
8183;SDS011;4133;48.752;9.088;2023-02-13T11:34:54;8.53;;;6.20;;
8183;SDS011;4133;48.752;9.088;2023-02-13T11:39:47;8.63;;;6.00;;
8183;SDS011;4133;48.752;9.088;2023-02-13T11:42:35;7.70;;;6.10;;
8183;SDS011;4133;48.752;9.088;2023-02-13T11:45:04;6.43;;;5.70;;
8183;SDS011;4133;48.752;9.088;2023-02-13T11:47:33;7.33;;;5.93;;
8183;SDS011;4133;48.752;9.088;2023-02-13T11:49:59;8.43;;;6.77;;
8183;SDS011;4133;48.752;9.088;2023-02-13T11:54:58;7.70;;;5.87;;
8183;SDS011;4133;48.752;9.088;2023-02-13T11:59:54;9.37;;;6.60;;
8183;SDS011;4133;48.752;9.088;2023-02-13T12:02:21;8.03;;;6.70;;
8183;SDS011;4133;48.752;9.088;2023-02-13T12:04:48;8.60;;;6.23;;
8183;SDS011;4133;48.752;9.088;2023-02-13T12:07:16;10.63;;;6.60;;
8183;SDS011;4133;48.752;9.088;2023-02-13T12:09:44;8.53;;;5.73;;
8183;SDS011;4133;48.752;9.088;2023-02-13T12:12:17;8.47;;;5.83;;
8183;SDS011;4133;48.752;9.088;2023-02-13T12:14:44;9.77;;;6.60;;
8183;SDS011;4133;48.752;9.088;2023-02-13T12:17:11;12.67;;;6.80;;
8183;SDS011;4133;48.752;9.088;2023-02-13T12:19:40;10.23;;;6.70;;
8183;SDS011;4133;48.752;9.088;2023-02-13T12:24:37;7.03;;;5.90;;
8183;SDS011;4133;48.752;9.088;2023-02-13T12:37:27;6.33;;;5.37;;
8183;SDS011;4133;48.752;9.088;2023-02-13T12:40:01;6.23;;;5.10;;
8183;SDS011;4133;48.752;9.088;2023-02-13T12:47:50;5.63;;;5.03;;
8183;SDS011;4133;48.752;9.088;2023-02-13T12:50:31;5.37;;;4.83;;
8183;SDS011;4133;48.752;9.088;2023-02-13T13:11:17;6.17;;;5.50;;
8183;SDS011;4133;48.752;9.088;2023-02-13T13:29:05;6.47;;;5.73;;
8183;SDS011;4133;48.752;9.088;2023-02-13T13:31:33;7.43;;;6.32;;
8183;SDS011;4133;48.752;9.088;2023-02-13T13:34:00;7.87;;;5.90;;
8183;SDS011;4133;48.752;9.088;2023-02-13T13:44:12;11.87;;;5.80;;
8183;SDS011;4133;48.752;9.088;2023-02-13T13:51:50;6.23;;;5.20;;
8183;SDS011;4133;48.752;9.088;2023-02-13T13:54:21;8.23;;;5.53;;
8183;SDS011;4133;48.752;9.088;2023-02-13T14:07:40;8.48;;;6.88;;
8183;SDS011;4133;48.752;9.088;2023-02-13T14:25:46;11.13;;;7.30;;
8183;SDS011;4133;48.752;9.088;2023-02-13T14:31:03;9.15;;;7.63;;
8183;SDS011;4133;48.752;9.088;2023-02-13T14:33:30;8.25;;;7.45;;
8183;SDS011;4133;48.752;9.088;2023-02-13T14:36:06;8.90;;;7.72;;
8183;SDS011;4133;48.752;9.088;2023-02-13T14:38:33;8.32;;;7.43;;
8183;SDS011;4133;48.752;9.088;2023-02-13T14:41:00;11.70;;;7.43;;
8183;SDS011;4133;48.752;9.088;2023-02-13T14:48:45;9.00;;;7.50;;
8183;SDS011;4133;48.752;9.088;2023-02-13T14:51:15;11.90;;;7.53;;
8183;SDS011;4133;48.752;9.088;2023-02-13T14:53:51;8.93;;;7.65;;
8183;SDS011;4133;48.752;9.088;2023-02-13T14:56:19;8.82;;;7.25;;
8183;SDS011;4133;48.752;9.088;2023-02-13T15:03:46;12.45;;;8.32;;
8183;SDS011;4133;48.752;9.088;2023-02-13T15:06:13;9.80;;;7.88;;
8183;SDS011;4133;48.752;9.088;2023-02-13T15:08:50;11.45;;;8.75;;
8183;SDS011;4133;48.752;9.088;2023-02-13T15:11:33;10.00;;;8.27;;
8183;SDS011;4133;48.752;9.088;2023-02-13T15:14:13;12.03;;;8.77;;
8183;SDS011;4133;48.752;9.088;2023-02-13T15:16:39;10.70;;;8.40;;
8183;SDS011;4133;48.752;9.088;2023-02-13T15:19:11;11.43;;;8.80;;
8183;SDS011;4133;48.752;9.088;2023-02-13T15:21:39;11.93;;;8.23;;
8183;SDS011;4133;48.752;9.088;2023-02-13T15:24:12;12.33;;;8.30;;
8183;SDS011;4133;48.752;9.088;2023-02-13T15:26:39;11.20;;;7.83;;
8183;SDS011;4133;48.752;9.088;2023-02-13T15:29:24;12.57;;;8.40;;
8183;SDS011;4133;48.752;9.088;2023-02-13T15:31:50;11.70;;;8.30;;
8183;SDS011;4133;48.752;9.088;2023-02-13T15:34:34;13.00;;;8.63;;
8183;SDS011;4133;48.752;9.088;2023-02-13T15:37:00;11.90;;;7.90;;
8183;SDS011;4133;48.752;9.088;2023-02-13T15:39:28;9.23;;;7.70;;
8183;SDS011;4133;48.752;9.088;2023-02-13T15:41:55;10.33;;;8.20;;
8183;SDS011;4133;48.752;9.088;2023-02-13T15:44:26;11.70;;;7.90;;
8183;SDS011;4133;48.752;9.088;2023-02-13T15:46:53;11.73;;;7.93;;
8183;SDS011;4133;48.752;9.088;2023-02-13T15:49:20;10.60;;;7.83;;
8183;SDS011;4133;48.752;9.088;2023-02-13T15:51:47;11.83;;;8.50;;
8183;SDS011;4133;48.752;9.088;2023-02-13T15:54:21;10.97;;;8.67;;
8183;SDS011;4133;48.752;9.088;2023-02-13T15:56:47;12.40;;;8.60;;
8183;SDS011;4133;48.752;9.088;2023-02-13T15:59:14;12.90;;;7.93;;
8183;SDS011;4133;48.752;9.088;2023-02-13T16:01:41;13.87;;;8.13;;
8183;SDS011;4133;48.752;9.088;2023-02-13T16:04:14;13.47;;;8.40;;
8183;SDS011;4133;48.752;9.088;2023-02-13T16:06:42;16.67;;;9.83;;
8183;SDS011;4133;48.752;9.088;2023-02-13T16:09:20;10.77;;;8.60;;
8183;SDS011;4133;48.752;9.088;2023-02-13T16:11:48;11.07;;;8.20;;
8183;SDS011;4133;48.752;9.088;2023-02-13T16:14:15;11.77;;;9.00;;
8183;SDS011;4133;48.752;9.088;2023-02-13T16:16:49;12.87;;;9.23;;
8183;SDS011;4133;48.752;9.088;2023-02-13T16:21:48;10.10;;;7.70;;
8183;SDS011;4133;48.752;9.088;2023-02-13T16:24:14;10.90;;;7.67;;
8183;SDS011;4133;48.752;9.088;2023-02-13T16:26:41;9.97;;;7.50;;
8183;SDS011;4133;48.752;9.088;2023-02-13T16:29:09;10.27;;;8.17;;
8183;SDS011;4133;48.752;9.088;2023-02-13T16:31:37;12.83;;;8.47;;
8183;SDS011;4133;48.752;9.088;2023-02-13T16:34:13;16.13;;;8.20;;
8183;SDS011;4133;48.752;9.088;2023-02-13T16:36:39;11.97;;;8.53;;
8183;SDS011;4133;48.752;9.088;2023-02-13T16:39:09;10.33;;;7.87;;
8183;SDS011;4133;48.752;9.088;2023-02-13T16:41:35;10.83;;;8.63;;
8183;SDS011;4133;48.752;9.088;2023-02-13T16:44:04;11.67;;;7.60;;
8183;SDS011;4133;48.752;9.088;2023-02-13T16:46:31;12.43;;;9.57;;
8183;SDS011;4133;48.752;9.088;2023-02-13T16:48:59;14.50;;;10.20;;
8183;SDS011;4133;48.752;9.088;2023-02-13T16:51:34;11.13;;;8.87;;
8183;SDS011;4133;48.752;9.088;2023-02-13T16:54:21;10.53;;;8.77;;
8183;SDS011;4133;48.752;9.088;2023-02-13T16:56:49;10.67;;;8.20;;
8183;SDS011;4133;48.752;9.088;2023-02-13T17:02:13;11.63;;;8.20;;
8183;SDS011;4133;48.752;9.088;2023-02-13T17:04:47;11.33;;;8.50;;
8183;SDS011;4133;48.752;9.088;2023-02-13T17:07:14;9.63;;;7.70;;
8183;SDS011;4133;48.752;9.088;2023-02-13T17:09:40;12.10;;;8.43;;
8183;SDS011;4133;48.752;9.088;2023-02-13T17:12:14;10.43;;;8.80;;
8183;SDS011;4133;48.752;9.088;2023-02-13T17:14:40;12.20;;;8.37;;
8183;SDS011;4133;48.752;9.088;2023-02-13T17:17:10;12.07;;;7.87;;
8183;SDS011;4133;48.752;9.088;2023-02-13T17:19:36;12.30;;;8.03;;
8183;SDS011;4133;48.752;9.088;2023-02-13T17:22:02;9.90;;;7.97;;
8183;SDS011;4133;48.752;9.088;2023-02-13T17:24:29;10.37;;;8.00;;
8183;SDS011;4133;48.752;9.088;2023-02-13T17:26:55;10.83;;;7.90;;
8183;SDS011;4133;48.752;9.088;2023-02-13T17:29:33;11.30;;;8.23;;
8183;SDS011;4133;48.752;9.088;2023-02-13T17:31:59;11.30;;;8.20;;
8183;SDS011;4133;48.752;9.088;2023-02-13T17:34:25;13.33;;;8.67;;
8183;SDS011;4133;48.752;9.088;2023-02-13T17:36:51;11.67;;;8.60;;
8183;SDS011;4133;48.752;9.088;2023-02-13T17:39:17;11.80;;;8.47;;
8183;SDS011;4133;48.752;9.088;2023-02-13T17:41:43;13.47;;;8.93;;
8183;SDS011;4133;48.752;9.088;2023-02-13T17:44:11;13.17;;;8.73;;
8183;SDS011;4133;48.752;9.088;2023-02-13T17:46:37;12.47;;;8.30;;
8183;SDS011;4133;48.752;9.088;2023-02-13T17:49:03;12.07;;;8.83;;
8183;SDS011;4133;48.752;9.088;2023-02-13T17:51:30;14.07;;;9.93;;
8183;SDS011;4133;48.752;9.088;2023-02-13T17:53:56;12.30;;;8.90;;
8183;SDS011;4133;48.752;9.088;2023-02-13T17:56:22;15.37;;;10.63;;
8183;SDS011;4133;48.752;9.088;2023-02-13T17:58:48;15.97;;;9.73;;
8183;SDS011;4133;48.752;9.088;2023-02-13T18:01:14;14.33;;;9.57;;
8183;SDS011;4133;48.752;9.088;2023-02-13T18:03:40;14.23;;;9.03;;
8183;SDS011;4133;48.752;9.088;2023-02-13T18:06:10;20.27;;;12.43;;
8183;SDS011;4133;48.752;9.088;2023-02-13T18:08:36;24.33;;;14.73;;
8183;SDS011;4133;48.752;9.088;2023-02-13T18:11:07;17.53;;;10.70;;
8183;SDS011;4133;48.752;9.088;2023-02-13T18:13:33;13.27;;;9.43;;
8183;SDS011;4133;48.752;9.088;2023-02-13T18:15:59;16.35;;;11.98;;
8183;SDS011;4133;48.752;9.088;2023-02-13T18:18:25;14.27;;;9.53;;
8183;SDS011;4133;48.752;9.088;2023-02-13T18:20:56;13.93;;;9.87;;